Terminal Aerodrome Forecast
Issued by NWS

Home | Current Version | Previous Version | Text Only | Print | Product List | Glossary On
Versions: 1 2 3 4 5 6 7 8 9 10 11 12 13 14 15 16 17 18 19 20 21 22 23 24 25
000
FTUS41 KBUF 241700
TAFIAG
TAF
KIAG 241740Z 2418/2518 35008KT P6SM SCT050
     FM242300 29005KT P6SM SKC
     FM250100 VRB03KT P6SM BKN200
     FM251300 24004KT P6SM SCT045
     FM251700 25008KT P6SM FEW045=

USA.gov is the U.S. government's official web portal to all federal, state and local government web resources and services.